Thomson Majesty — 9HA2188 — position and weather

sailwx.info

Track history (hours):
 
Tides and Currents Weather Stations Pressure Air Temp Water Temp Dewpoint Dewpoint Depression Visibility Wind Speed Wind Dir Waves Ship Positions

Thomson Majesty

Last reported at 2016-Apr-27 12:04 UTC. Time now 2016-Apr-30 01:20 UTC.
Position N 30°29' W 016°24'.

Length 207 m; draft 6.2 m.

Type: Ship. MMSI: 248124000.

Date/timePositionNaut miles runAvg speedWind from/ knotsBaromVisibWave heightAir tempDewpointWater temp
2016-Apr-27 12:04N 30°29' W 016°24'5 9.5
2016-Apr-27 11:34N 30°24' W 016°24'41 9.5
2016-Apr-27 07:15N 29°44' W 016°17'6 9.1
2016-Apr-27 06:33N 29°38' W 016°16'10 9.1
2016-Apr-27 05:30N 29°28' W 016°14'9 9.2
2016-Apr-27 04:28N 29°19' W 016°13'9 9.2
2016-Apr-27 03:32N 29°10' W 016°11'9 9.1
2016-Apr-27 02:33N 29°01' W 016°10'9 9.3
2016-Apr-27 01:33N 28°52' W 016°09'9 9.1
2016-Apr-27 00:33N 28°43' W 016°07'9 8.7
2016-Apr-26 23:33N 28°35' W 016°05'8 7.6
2016-Apr-26 22:33N 28°29' W 016°10'4 3.3
2016-Apr-26 21:28N 28°28' W 016°15'0 0.0
2016-Apr-26 20:28N 28°28' W 016°15'0 0.0
2016-Apr-26 19:25N 28°28' W 016°15'0 0.0
2016-Apr-26 18:31N 28°28' W 016°15'0 0.0
2016-Apr-26 17:31N 28°28' W 016°15'0 0.0
2016-Apr-26 16:28N 28°28' W 016°15'0 0.0
2016-Apr-26 15:31N 28°28' W 016°15'0 0.0
2016-Apr-26 14:19N 28°28' W 016°15'0 0.0
2016-Apr-26 13:31N 28°28' W 016°15'0 0.0
2016-Apr-26 12:31N 28°28' W 016°15'0 0.0
2016-Apr-26 11:22N 28°28' W 016°15'0 0.0
2016-Apr-26 10:22N 28°28' W 016°15'0 0.0
2016-Apr-26 09:25N 28°28' W 016°15'0 0.0
2016-Apr-26 08:25N 28°28' W 016°15'0 0.0
2016-Apr-26 07:28N 28°28' W 016°15'0 0.0
2016-Apr-26 06:25N 28°28' W 016°15'0 0.0
2016-Apr-26 05:28N 28°28' W 016°15'0 0.0
2016-Apr-26 04:28N 28°28' W 016°15'6 6.8
2016-Apr-26 03:33N 28°26' W 016°08'9 8.9
2016-Apr-26 02:33N 28°26' W 015°58'9 9.2
2016-Apr-26 01:33N 28°31' W 015°49'9 8.8
2016-Apr-26 00:33N 28°36' W 015°41'1110.6
2016-Apr-25 23:33N 28°27' W 015°33'1010.3
2016-Apr-25 22:34N 28°19' W 015°27'1010.2
2016-Apr-25 21:33N 28°09' W 015°22'3 2.3
2016-Apr-25 20:23N 28°08' W 015°25'0 0.0
2016-Apr-25 19:26N 28°08' W 015°25'0 0.0
2016-Apr-25 18:26N 28°08' W 015°25'0 0.0
2016-Apr-25 17:26N 28°08' W 015°25'0 0.0
2016-Apr-25 16:26N 28°08' W 015°25'0 0.0
2016-Apr-25 15:29N 28°08' W 015°25'0 0.0
2016-Apr-25 14:29N 28°08' W 015°25'0 0.0
2016-Apr-25 13:33N 28°08' W 015°25'0 0.0
2016-Apr-25 12:33N 28°08' W 015°25'0 0.0
2016-Apr-25 11:33N 28°08' W 015°25'0 0.0
2016-Apr-25 10:33N 28°08' W 015°25'0 0.0
2016-Apr-25 09:33N 28°08' W 015°25'0 0.0
2016-Apr-25 08:33N 28°08' W 015°25'0 0.0
2016-Apr-25 07:33N 28°08' W 015°25'0 0.0
2016-Apr-25 06:33N 28°08' W 015°25'0 0.0
2016-Apr-25 05:33N 28°08' W 015°25'10 9.6
2016-Apr-25 04:33N 28°08' W 015°14'1010.3
2016-Apr-25 03:34N 28°07' W 015°03'10 9.7
2016-Apr-25 02:33N 28°15' W 014°56'1110.6
2016-Apr-25 01:33N 28°23' W 014°49'1110.9
2016-Apr-25 00:33N 28°29' W 014°38'1211.0
2016-Apr-24 23:30N 28°35' W 014°27'1210.7
2016-Apr-24 22:21N 28°41' W 014°15'810.6
2016-Apr-24 21:33N 28°45' W 014°06'1110.9
2016-Apr-24 20:33N 28°48' W 013°54'1110.8
2016-Apr-24 19:34N 28°50' W 013°42'4 3.7
2016-Apr-24 18:33N 28°51' W 013°38'6 5.6
2016-Apr-24 17:33N 28°55' W 013°34'4 3.3
2016-Apr-24 16:27N 28°58' W 013°32'0 0.0
2016-Apr-24 15:30N 28°58' W 013°32'0 0.0
2016-Apr-24 13:33N 28°58' W 013°32'0 0.0
2016-Apr-24 12:33N 28°58' W 013°32'0 0.0
2016-Apr-24 11:33N 28°58' W 013°32'0 0.0
2016-Apr-24 10:34N 28°58' W 013°32'0 0.0
2016-Apr-24 09:31N 28°58' W 013°32'0 0.0
2016-Apr-24 08:34N 28°58' W 013°32'7 7.0
2016-Apr-24 07:33N 28°59' W 013°24'1615.7
2016-Apr-24 06:33N 29°05' W 013°07'1615.6
2016-Apr-24 05:33N 29°11' W 012°51'1615.7
2016-Apr-24 04:33N 29°17' W 012°34'1615.7
2016-Apr-24 03:33N 29°24' W 012°18'1615.4
2016-Apr-24 02:33N 29°30' W 012°01'1515.3
2016-Apr-24 01:33N 29°36' W 011°45'2215.2
2016-Apr-24 00:06N 29°45' W 011°22'  
2016-Apr-20 01:25N 28°40' W 016°27'1112.5
2016-Apr-20 00:33N 28°40' W 016°14'1110.7
2016-Apr-19 23:33N 28°35' W 016°04'1110.7
2016-Apr-19 22:33N 28°29' W 016°13'1 1.1
2016-Apr-19 21:27N 28°28' W 016°15'0 0.0
2016-Apr-19 20:24N 28°28' W 016°15'0 0.0
2016-Apr-19 18:30N 28°28' W 016°15'0 0.0
2016-Apr-19 17:27N 28°28' W 016°15'0 0.0
2016-Apr-19 16:33N 28°28' W 016°15'0 0.0
2016-Apr-19 15:33N 28°28' W 016°15'0 0.0
2016-Apr-19 14:33N 28°28' W 016°15'0 0.0
2016-Apr-19 13:33N 28°28' W 016°15'0 0.0
2016-Apr-19 12:33N 28°28' W 016°15'0 0.0
2016-Apr-19 11:21N 28°28' W 016°15'0 0.0
2016-Apr-19 10:33N 28°28' W 016°15'0 0.0
2016-Apr-19 09:24N 28°28' W 016°15'0 0.0
2016-Apr-19 08:24N 28°28' W 016°15'0 0.0
2016-Apr-19 07:24N 28°28' W 016°15'0 0.0
2016-Apr-19 06:27N 28°28' W 016°15'0 0.0
2016-Apr-19 05:27N 28°28' W 016°15'0 0.0
2016-Apr-19 04:28N 28°28' W 016°15'8 8.6
2016-Apr-19 03:33N 28°27' W 016°06'10 9.9
2016-Apr-19 02:33N 28°28' W 015°55'1010.3
2016-Apr-19 01:33N 28°35' W 015°47'8 8.2
2016-Apr-19 00:33N 28°34' W 015°38'1010.4
2016-Apr-18 23:33N 28°27' W 015°29'1110.5
2016-Apr-18 22:33N 28°20' W 015°20'1110.7
2016-Apr-18 21:33N 28°09' W 015°22'3 2.7
2016-Apr-18 20:33N 28°08' W 015°25'0 0.0
2016-Apr-18 19:33N 28°08' W 015°25'0 0.0
2016-Apr-18 18:33N 28°08' W 015°25'0 0.0
2016-Apr-18 17:24N 28°08' W 015°25'0 0.0
2016-Apr-18 16:27N 28°08' W 015°25'0 0.0
2016-Apr-18 15:27N 28°08' W 015°25'0 0.0
2016-Apr-18 14:24N 28°08' W 015°25'0 0.0
2016-Apr-18 13:30N 28°08' W 015°25'0 0.0
2016-Apr-18 12:30N 28°08' W 015°25'0 0.0
2016-Apr-18 11:30N 28°08' W 015°25'0 0.0
2016-Apr-18 10:33N 28°08' W 015°25'0 0.0
2016-Apr-18 09:33N 28°08' W 015°25'0 0.0
2016-Apr-18 08:30N 28°08' W 015°25'0 0.0
2016-Apr-18 07:33N 28°08' W 015°25'0 0.0
2016-Apr-18 06:33N 28°08' W 015°25'0 0.0
2016-Apr-18 05:33N 28°08' W 015°25'8 7.6
2016-Apr-18 04:33N 28°07' W 015°17'10 9.9
2016-Apr-18 03:33N 28°05' W 015°06'1010.0
2016-Apr-18 02:33N 28°04' W 014°55'1010.3
2016-Apr-18 01:33N 28°02' W 014°43'10 9.9
2016-Apr-18 00:33N 28°01' W 014°32'1010.3
2016-Apr-17 23:33N 27°60' W 014°20'1110.6
2016-Apr-17 22:33N 28°01' W 014°08'1010.1
2016-Apr-17 21:33N 28°02' W 013°57'0 0.4
2016-Apr-17 20:33N 28°02' W 013°57'0 0.4
2016-Apr-17 19:33N 28°02' W 013°56'3 3.0
2016-Apr-17 18:33N 28°04' W 013°54'1110.8
2016-Apr-17 17:33N 28°14' W 013°49'1110.8
2016-Apr-17 16:32N 28°25' W 013°50'  
Track history (hours):
 
Tides and Currents Weather Stations Pressure Air Temp Water Temp Dewpoint Dewpoint Depression Visibility Wind Speed Wind Dir Waves Ship Positions

Thomson Majesty

Last reported at 2016-Apr-27 12:04 UTC. Time now 2016-Apr-30 01:20 UTC.
Position N 30°29' W 016°24'.

Length 207 m; draft 6.2 m.

Type: Ship. MMSI: 248124000.

Date/timePositionNaut miles runAvg speedWind from/ knotsBaromVisibWave heightAir tempDewpointWater temp
2016-Apr-27 12:04N 30°29' W 016°24'5 9.5
2016-Apr-27 11:34N 30°24' W 016°24'41 9.5
2016-Apr-27 07:15N 29°44' W 016°17'6 9.1
2016-Apr-27 06:33N 29°38' W 016°16'10 9.1
2016-Apr-27 05:30N 29°28' W 016°14'9 9.2
2016-Apr-27 04:28N 29°19' W 016°13'9 9.2
2016-Apr-27 03:32N 29°10' W 016°11'9 9.1
2016-Apr-27 02:33N 29°01' W 016°10'9 9.3
2016-Apr-27 01:33N 28°52' W 016°09'9 9.1
2016-Apr-27 00:33N 28°43' W 016°07'9 8.7
2016-Apr-26 23:33N 28°35' W 016°05'8 7.6
2016-Apr-26 22:33N 28°29' W 016°10'4 3.3
2016-Apr-26 21:28N 28°28' W 016°15'0 0.0
2016-Apr-26 20:28N 28°28' W 016°15'0 0.0
2016-Apr-26 19:25N 28°28' W 016°15'0 0.0
2016-Apr-26 18:31N 28°28' W 016°15'0 0.0
2016-Apr-26 17:31N 28°28' W 016°15'0 0.0
2016-Apr-26 16:28N 28°28' W 016°15'0 0.0
2016-Apr-26 15:31N 28°28' W 016°15'0 0.0
2016-Apr-26 14:19N 28°28' W 016°15'0 0.0
2016-Apr-26 13:31N 28°28' W 016°15'0 0.0
2016-Apr-26 12:31N 28°28' W 016°15'0 0.0
2016-Apr-26 11:22N 28°28' W 016°15'0 0.0
2016-Apr-26 10:22N 28°28' W 016°15'0 0.0
2016-Apr-26 09:25N 28°28' W 016°15'0 0.0
2016-Apr-26 08:25N 28°28' W 016°15'0 0.0
2016-Apr-26 07:28N 28°28' W 016°15'0 0.0
2016-Apr-26 06:25N 28°28' W 016°15'0 0.0
2016-Apr-26 05:28N 28°28' W 016°15'0 0.0
2016-Apr-26 04:28N 28°28' W 016°15'6 6.8
2016-Apr-26 03:33N 28°26' W 016°08'9 8.9
2016-Apr-26 02:33N 28°26' W 015°58'9 9.2
2016-Apr-26 01:33N 28°31' W 015°49'9 8.8
2016-Apr-26 00:33N 28°36' W 015°41'1110.6
2016-Apr-25 23:33N 28°27' W 015°33'1010.3
2016-Apr-25 22:34N 28°19' W 015°27'1010.2
2016-Apr-25 21:33N 28°09' W 015°22'3 2.3
2016-Apr-25 20:23N 28°08' W 015°25'0 0.0
2016-Apr-25 19:26N 28°08' W 015°25'0 0.0
2016-Apr-25 18:26N 28°08' W 015°25'0 0.0
2016-Apr-25 17:26N 28°08' W 015°25'0 0.0
2016-Apr-25 16:26N 28°08' W 015°25'0 0.0
2016-Apr-25 15:29N 28°08' W 015°25'0 0.0
2016-Apr-25 14:29N 28°08' W 015°25'0 0.0
2016-Apr-25 13:33N 28°08' W 015°25'0 0.0
2016-Apr-25 12:33N 28°08' W 015°25'0 0.0
2016-Apr-25 11:33N 28°08' W 015°25'0 0.0
2016-Apr-25 10:33N 28°08' W 015°25'0 0.0
2016-Apr-25 09:33N 28°08' W 015°25'0 0.0
2016-Apr-25 08:33N 28°08' W 015°25'0 0.0
2016-Apr-25 07:33N 28°08' W 015°25'0 0.0
2016-Apr-25 06:33N 28°08' W 015°25'0 0.0
2016-Apr-25 05:33N 28°08' W 015°25'10 9.6
2016-Apr-25 04:33N 28°08' W 015°14'1010.3
2016-Apr-25 03:34N 28°07' W 015°03'10 9.7
2016-Apr-25 02:33N 28°15' W 014°56'1110.6
2016-Apr-25 01:33N 28°23' W 014°49'1110.9
2016-Apr-25 00:33N 28°29' W 014°38'1211.0
2016-Apr-24 23:30N 28°35' W 014°27'1210.7
2016-Apr-24 22:21N 28°41' W 014°15'810.6
2016-Apr-24 21:33N 28°45' W 014°06'1110.9
2016-Apr-24 20:33N 28°48' W 013°54'1110.8
2016-Apr-24 19:34N 28°50' W 013°42'4 3.7
2016-Apr-24 18:33N 28°51' W 013°38'6 5.6
2016-Apr-24 17:33N 28°55' W 013°34'4 3.3
2016-Apr-24 16:27N 28°58' W 013°32'0 0.0
2016-Apr-24 15:30N 28°58' W 013°32'0 0.0
2016-Apr-24 13:33N 28°58' W 013°32'0 0.0
2016-Apr-24 12:33N 28°58' W 013°32'0 0.0
2016-Apr-24 11:33N 28°58' W 013°32'0 0.0
2016-Apr-24 10:34N 28°58' W 013°32'0 0.0
2016-Apr-24 09:31N 28°58' W 013°32'0 0.0
2016-Apr-24 08:34N 28°58' W 013°32'7 7.0
2016-Apr-24 07:33N 28°59' W 013°24'1615.7
2016-Apr-24 06:33N 29°05' W 013°07'1615.6
2016-Apr-24 05:33N 29°11' W 012°51'1615.7
2016-Apr-24 04:33N 29°17' W 012°34'1615.7
2016-Apr-24 03:33N 29°24' W 012°18'1615.4
2016-Apr-24 02:33N 29°30' W 012°01'1515.3
2016-Apr-24 01:33N 29°36' W 011°45'2215.2
2016-Apr-24 00:06N 29°45' W 011°22'  
2016-Apr-20 01:25N 28°40' W 016°27'1112.5
2016-Apr-20 00:33N 28°40' W 016°14'1110.7
2016-Apr-19 23:33N 28°35' W 016°04'1110.7
2016-Apr-19 22:33N 28°29' W 016°13'1 1.1
2016-Apr-19 21:27N 28°28' W 016°15'0 0.0
2016-Apr-19 20:24N 28°28' W 016°15'0 0.0
2016-Apr-19 18:30N 28°28' W 016°15'0 0.0
2016-Apr-19 17:27N 28°28' W 016°15'0 0.0
2016-Apr-19 16:33N 28°28' W 016°15'0 0.0
2016-Apr-19 15:33N 28°28' W 016°15'0 0.0
2016-Apr-19 14:33N 28°28' W 016°15'0 0.0
2016-Apr-19 13:33N 28°28' W 016°15'0 0.0
2016-Apr-19 12:33N 28°28' W 016°15'0 0.0
2016-Apr-19 11:21N 28°28' W 016°15'0 0.0
2016-Apr-19 10:33N 28°28' W 016°15'0 0.0
2016-Apr-19 09:24N 28°28' W 016°15'0 0.0
2016-Apr-19 08:24N 28°28' W 016°15'0 0.0
2016-Apr-19 07:24N 28°28' W 016°15'0 0.0
2016-Apr-19 06:27N 28°28' W 016°15'0 0.0
2016-Apr-19 05:27N 28°28' W 016°15'0 0.0
2016-Apr-19 04:28N 28°28' W 016°15'8 8.6
2016-Apr-19 03:33N 28°27' W 016°06'10 9.9
2016-Apr-19 02:33N 28°28' W 015°55'1010.3
2016-Apr-19 01:33N 28°35' W 015°47'8 8.2
2016-Apr-19 00:33N 28°34' W 015°38'1010.4
2016-Apr-18 23:33N 28°27' W 015°29'1110.5
2016-Apr-18 22:33N 28°20' W 015°20'1110.7
2016-Apr-18 21:33N 28°09' W 015°22'3 2.7
2016-Apr-18 20:33N 28°08' W 015°25'0 0.0
2016-Apr-18 19:33N 28°08' W 015°25'0 0.0
2016-Apr-18 18:33N 28°08' W 015°25'0 0.0
2016-Apr-18 17:24N 28°08' W 015°25'0 0.0
2016-Apr-18 16:27N 28°08' W 015°25'0 0.0
2016-Apr-18 15:27N 28°08' W 015°25'0 0.0
2016-Apr-18 14:24N 28°08' W 015°25'0 0.0
2016-Apr-18 13:30N 28°08' W 015°25'0 0.0
2016-Apr-18 12:30N 28°08' W 015°25'0 0.0
2016-Apr-18 11:30N 28°08' W 015°25'0 0.0
2016-Apr-18 10:33N 28°08' W 015°25'0 0.0
2016-Apr-18 09:33N 28°08' W 015°25'0 0.0
2016-Apr-18 08:30N 28°08' W 015°25'0 0.0
2016-Apr-18 07:33N 28°08' W 015°25'0 0.0
2016-Apr-18 06:33N 28°08' W 015°25'0 0.0
2016-Apr-18 05:33N 28°08' W 015°25'8 7.6
2016-Apr-18 04:33N 28°07' W 015°17'10 9.9
2016-Apr-18 03:33N 28°05' W 015°06'1010.0
2016-Apr-18 02:33N 28°04' W 014°55'1010.3
2016-Apr-18 01:33N 28°02' W 014°43'10 9.9
2016-Apr-18 00:33N 28°01' W 014°32'1010.3
2016-Apr-17 23:33N 27°60' W 014°20'1110.6
2016-Apr-17 22:33N 28°01' W 014°08'1010.1
2016-Apr-17 21:33N 28°02' W 013°57'0 0.4
2016-Apr-17 20:33N 28°02' W 013°57'0 0.4
2016-Apr-17 19:33N 28°02' W 013°56'3 3.0
2016-Apr-17 18:33N 28°04' W 013°54'1110.8
2016-Apr-17 17:33N 28°14' W 013°49'1110.8
2016-Apr-17 16:32N 28°25' W 013°50'  

Dump ship's entire track history